Keetmanshoop, Namibia
Current Conditions -  °F | °C
As of 5:00 AM on Thursday 27 Nov 2014 (Local Time) from FAUP Reporting Station
Broken Clouds Broken Clouds  
Wind Chill: 57°   Ceiling: 10000
Heat Index: 57°   Visibility: 6mi
Dew Point: 41°   Wind: 10mph
Humidity: 55%   Direction: 210°SSW
Pressure: 30"   Gusts: NA
Location:  26.58°S, 18.13°E
Report Text: FAUP 270400Z 21009KT 9999 FEW025 BKN100 14/05 Q1016 NOSIG
Loading
Personal Weather Stations






























Interactive Weather Map New forecast layout! Learn more

10-Day Weather Forecast

Advertisements
Track Severe Weather on mobile